Time;durP1;ratioP1;P1;durP2;ratioP2;P2;SDS_P1;SDS_P2;PMS_P1;PMS_P2;Temp;Humidity;BMP_temperature;BMP_pressure;BME280_temperature;BME280_humidity;BME280_pressure;Samples;Min_cycle;Max_cycle;Signal;HPM_P1;HPM_P2
2022/07/19 00:01:44;;;;;;;4.20;3.80;;;23.40;76.70;;;;;;5006864;28;20203;-71
2022/07/19 00:04:10;;;;;;;3.77;3.43;;;23.30;76.80;;;;;;5005069;28;20565;-70
2022/07/19 00:06:36;;;;;;;3.53;3.23;;;23.20;76.80;;;;;;5006434;28;20262;-72
2022/07/19 00:09:02;;;;;;;4.93;3.10;;;23.40;77.10;;;;;;5006726;28;20227;-71
2022/07/19 00:11:27;;;;;;;3.73;3.37;;;23.50;77.00;;;;;;5007379;28;20270;-71
2022/07/19 00:13:53;;;;;;;4.30;3.40;;;23.50;77.00;;;;;;5006561;28;20901;-71
2022/07/19 00:16:19;;;;;;;3.43;3.13;;;23.50;77.00;;;;;;5006273;28;20179;-71
2022/07/19 00:18:44;;;;;;;4.90;2.90;;;23.50;77.40;;;;;;5005717;28;20526;-71
2022/07/19 00:21:10;;;;;;;3.83;3.43;;;23.40;77.80;;;;;;5006703;28;20188;-70
2022/07/19 00:23:36;;;;;;;3.77;3.47;;;23.40;78.50;;;;;;5005081;28;20263;-70
2022/07/19 00:26:02;;;;;;;4.70;3.80;;;23.30;79.50;;;;;;5005630;28;20233;-71
2022/07/19 00:28:28;;;;;;;4.73;3.60;;;23.20;79.80;;;;;;5005379;28;20187;-70
2022/07/19 00:30:53;;;;;;;4.33;3.93;;;23.20;79.60;;;;;;5005250;28;20501;-71
2022/07/19 00:33:19;;;;;;;4.03;3.37;;;23.20;80.00;;;;;;5005752;28;20282;-71
2022/07/19 00:35:45;;;;;;;4.10;3.17;;;23.20;80.30;;;;;;5005341;28;20419;-71
2022/07/19 00:38:12;;;;;;;4.10;3.70;;;23.10;80.60;;;;;;5004971;28;20176;-71
2022/07/19 00:40:40;;;;;;;3.67;3.27;;;23.00;81.90;;;;;;5005838;28;20176;-71
2022/07/19 00:43:06;;;;;;;4.00;3.67;;;22.90;82.80;;;;;;5005883;28;20787;-70
2022/07/19 00:45:32;;;;;;;3.70;3.40;;;22.90;83.50;;;;;;5005225;28;20439;-70
2022/07/19 00:47:58;;;;;;;4.37;4.07;;;23.00;83.50;;;;;;5005560;28;20423;-70
2022/07/19 00:50:23;;;;;;;5.27;3.60;;;22.90;83.90;;;;;;5005382;28;20553;-71
2022/07/19 00:52:52;;;;;;;4.20;3.67;;;23.00;83.90;;;;;;5005363;28;20202;-71
2022/07/19 00:55:19;;;;;;;4.00;3.60;;;23.10;83.40;;;;;;5005218;28;20238;-70
2022/07/19 00:57:46;;;;;;;5.77;3.67;;;23.10;83.00;;;;;;5031729;23;20831;-70
2022/07/19 01:00:12;;;;;;;4.10;3.03;;;23.00;83.50;;;;;;5003753;28;20454;-71
2022/07/19 01:02:39;;;;;;;4.00;3.70;;;22.90;84.00;;;;;;5004817;28;20407;-71
2022/07/19 01:05:07;;;;;;;3.83;3.53;;;22.90;84.70;;;;;;5006785;28;20411;-71
2022/07/19 01:07:34;;;;;;;5.10;4.17;;;22.80;85.00;;;;;;5004982;28;21559;-72
2022/07/19 01:10:01;;;;;;;4.20;3.90;;;22.70;85.90;;;;;;5004910;28;20438;-70
2022/07/19 01:12:28;;;;;;;4.20;3.70;;;22.60;86.20;;;;;;5004658;28;20445;-69
2022/07/19 01:14:57;;;;;;;4.30;3.60;;;22.70;86.10;;;;;;5004720;28;20411;-71
2022/07/19 01:17:23;;;;;;;3.90;3.47;;;22.60;86.20;;;;;;5005008;28;20422;-70
2022/07/19 01:19:49;;;;;;;3.80;3.40;;;22.50;87.10;;;;;;5004509;28;20430;-69
2022/07/19 01:22:14;;;;;;;4.13;3.83;;;22.40;87.50;;;;;;5004535;28;21494;-70
2022/07/19 01:24:40;;;;;;;5.87;3.80;;;22.40;88.50;;;;;;5004673;28;20656;-71
2022/07/19 01:27:07;;;;;;;6.00;3.53;;;22.30;89.40;;;;;;5005045;28;20183;-76
2022/07/19 01:29:35;;;;;;;4.83;4.37;;;22.20;90.00;;;;;;5003183;28;20746;-69
2022/07/19 01:32:01;;;;;;;4.10;3.60;;;22.20;90.00;;;;;;5004554;28;20463;-72
2022/07/19 01:34:26;;;;;;;4.23;3.93;;;22.30;89.90;;;;;;5002982;28;20971;-74
2022/07/19 01:36:52;;;;;;;3.60;3.30;;;22.40;89.50;;;;;;5004188;28;20727;-69
2022/07/19 01:39:18;;;;;;;4.30;3.90;;;22.30;89.00;;;;;;5004297;28;20195;-69
2022/07/19 01:41:43;;;;;;;4.10;3.70;;;22.30;89.90;;;;;;5004617;28;20180;-70
2022/07/19 01:44:09;;;;;;;4.90;3.30;;;22.20;90.10;;;;;;5003901;28;20194;-74
2022/07/19 01:46:34;;;;;;;3.63;3.33;;;22.00;90.50;;;;;;5003401;28;20184;-69
2022/07/19 01:49:00;;;;;;;3.57;3.30;;;22.00;90.70;;;;;;5003982;28;21173;-71
2022/07/19 01:51:25;;;;;;;4.60;3.50;;;21.90;91.00;;;;;;5004221;28;20525;-70
2022/07/19 01:53:51;;;;;;;3.93;3.63;;;21.90;91.20;;;;;;5004069;28;20207;-70
2022/07/19 01:56:16;;;;;;;7.00;3.63;;;21.90;91.00;;;;;;5004109;28;20592;-74
2022/07/19 01:58:42;;;;;;;4.07;3.67;;;21.80;90.90;;;;;;5003678;28;20239;-70
2022/07/19 02:01:08;;;;;;;6.07;4.13;;;21.90;91.10;;;;;;5004337;28;21158;-70
2022/07/19 02:03:33;;;;;;;3.40;3.10;;;21.80;91.20;;;;;;5003944;28;20186;-73
2022/07/19 02:05:59;;;;;;;3.27;3.07;;;21.80;91.40;;;;;;5003866;28;20233;-72
2022/07/19 02:08:24;;;;;;;5.27;3.90;;;21.80;91.30;;;;;;5003729;28;20672;-69
2022/07/19 02:10:51;;;;;;;3.40;3.10;;;21.70;91.50;;;;;;5004043;28;20598;-69
2022/07/19 02:13:17;;;;;;;3.77;3.43;;;21.70;91.50;;;;;;5003675;28;20199;-69
2022/07/19 02:15:42;;;;;;;5.67;3.10;;;21.80;91.40;;;;;;5003821;28;20423;-69
2022/07/19 02:18:08;;;;;;;3.17;2.97;;;21.70;91.30;;;;;;5001768;28;20195;-70
2022/07/19 02:20:34;;;;;;;3.80;3.20;;;21.60;91.50;;;;;;5003693;28;20208;-73
2022/07/19 02:22:59;;;;;;;3.30;2.87;;;21.50;91.60;;;;;;5004192;28;20192;-70
2022/07/19 02:25:25;;;;;;;8.33;5.00;;;21.40;92.10;;;;;;5003765;28;20183;-70
2022/07/19 02:27:51;;;;;;;3.87;3.33;;;21.40;92.20;;;;;;5003849;28;20234;-73
2022/07/19 02:30:36;;;;;;;3.60;3.30;;;21.40;92.30;;;;;;5003345;28;20588;-70
2022/07/19 02:33:01;;;;;;;3.60;3.30;;;21.40;92.30;;;;;;5003919;28;20195;-70
2022/07/19 02:35:27;;;;;;;2.97;2.70;;;21.50;92.30;;;;;;5003639;28;20880;-74
2022/07/19 02:37:53;;;;;;;3.60;3.27;;;21.40;92.10;;;;;;5003413;28;20226;-73
2022/07/19 02:40:18;;;;;;;3.77;3.30;;;21.40;92.30;;;;;;5003687;28;20188;-70
2022/07/19 02:42:44;;;;;;;3.93;3.53;;;21.30;92.50;;;;;;5003715;28;20728;-72
2022/07/19 02:45:09;;;;;;;3.40;3.10;;;21.30;92.50;;;;;;5003498;28;20641;-71
2022/07/19 02:47:35;;;;;;;3.37;3.03;;;21.30;92.60;;;;;;5003654;28;20532;-71
2022/07/19 02:50:01;;;;;;;3.17;2.93;;;21.30;92.90;;;;;;5002215;28;20282;-70
2022/07/19 02:52:29;;;;;;;5.37;3.47;;;21.30;92.90;;;;;;5002971;28;20187;-72
2022/07/19 02:54:55;;;;;;;3.23;2.97;;;21.20;92.90;;;;;;5003521;28;20183;-73
2022/07/19 02:57:20;;;;;;;4.00;3.70;;;21.00;92.90;;;;;;5003975;28;20781;-71
2022/07/19 02:59:46;;;;;;;3.33;3.03;;;21.10;93.00;;;;;;5006661;28;20207;-72
2022/07/19 03:02:11;;;;;;;3.20;3.00;;;21.20;93.10;;;;;;5007274;28;20180;-70
2022/07/19 03:04:37;;;;;;;3.30;3.00;;;21.30;93.00;;;;;;5005972;28;20628;-71
2022/07/19 03:07:03;;;;;;;2.83;2.63;;;21.10;93.50;;;;;;5005854;28;20246;-70
2022/07/19 03:09:28;;;;;;;3.40;2.87;;;21.00;93.80;;;;;;5006845;28;20637;-72
2022/07/19 03:11:54;;;;;;;3.93;3.43;;;21.00;94.20;;;;;;5007317;28;20184;-69
2022/07/19 03:14:19;;;;;;;5.83;3.37;;;20.90;94.20;;;;;;5006490;28;20281;-70
2022/07/19 03:16:45;;;;;;;3.60;3.30;;;20.90;94.20;;;;;;5007283;28;20176;-68
2022/07/19 03:19:11;;;;;;;4.30;2.97;;;20.90;94.30;;;;;;5006896;28;20315;-68
2022/07/19 03:21:36;;;;;;;4.57;3.30;;;20.90;94.50;;;;;;5006728;28;20179;-70
2022/07/19 03:24:02;;;;;;;3.77;3.37;;;20.80;94.50;;;;;;5006826;28;20187;-72
2022/07/19 03:26:27;;;;;;;5.60;3.30;;;20.70;94.40;;;;;;5006834;28;20190;-72
2022/07/19 03:28:53;;;;;;;3.53;3.23;;;20.90;94.70;;;;;;5006453;28;20204;-70
2022/07/19 03:31:19;;;;;;;3.10;2.80;;;21.00;94.50;;;;;;5007064;28;20226;-70
2022/07/19 03:33:44;;;;;;;3.00;2.70;;;20.90;94.40;;;;;;4994136;28;20204;-71
2022/07/19 03:36:10;;;;;;;3.70;3.40;;;20.90;94.90;;;;;;5006866;28;20184;-70
2022/07/19 03:38:35;;;;;;;3.97;3.30;;;20.80;95.20;;;;;;5007102;28;20672;-70
2022/07/19 03:41:02;;;;;;;3.83;3.10;;;20.70;95.60;;;;;;5007015;28;20184;-72
2022/07/19 03:43:27;;;;;;;4.20;3.37;;;20.70;95.70;;;;;;5006949;28;20271;-69
2022/07/19 03:45:53;;;;;;;5.53;3.40;;;20.70;95.90;;;;;;5006790;28;20991;-72
2022/07/19 03:48:21;;;;;;;4.03;3.63;;;20.70;95.90;;;;;;5007152;28;20207;-70
2022/07/19 03:50:47;;;;;;;4.73;4.00;;;20.80;95.90;;;;;;5006907;28;20186;-73
2022/07/19 03:53:13;;;;;;;4.30;3.07;;;20.80;96.00;;;;;;5006671;28;20443;-73
2022/07/19 03:55:39;;;;;;;4.37;3.70;;;20.80;96.20;;;;;;5006606;28;20182;-69
2022/07/19 03:58:04;;;;;;;4.53;3.53;;;20.90;95.90;;;;;;5006128;28;20959;-70
2022/07/19 04:00:30;;;;;;;3.73;3.30;;;20.90;95.90;;;;;;5006422;28;20422;-69
2022/07/19 04:02:56;;;;;;;3.50;3.20;;;20.90;95.70;;;;;;5006208;28;20183;-69
2022/07/19 04:05:21;;;;;;;5.63;3.03;;;20.90;96.00;;;;;;5006524;28;20230;-69
2022/07/19 04:07:47;;;;;;;5.87;3.33;;;20.80;95.80;;;;;;5006259;28;20175;-69
2022/07/19 04:10:13;;;;;;;4.23;3.60;;;20.80;96.00;;;;;;5005386;28;20191;-69
2022/07/19 04:12:38;;;;;;;4.77;3.57;;;20.80;96.40;;;;;;5006113;28;20187;-71
2022/07/19 04:15:05;;;;;;;4.50;3.43;;;20.70;96.70;;;;;;5005934;28;20671;-70
2022/07/19 04:17:30;;;;;;;5.40;4.17;;;20.70;97.00;;;;;;5006332;28;20168;-70
2022/07/19 04:19:56;;;;;;;4.07;3.67;;;20.60;97.40;;;;;;5005979;28;20474;-70
2022/07/19 04:22:23;;;;;;;4.03;3.73;;;20.60;97.60;;;;;;5006450;28;20184;-70
2022/07/19 04:24:49;;;;;;;4.57;3.57;;;20.50;97.90;;;;;;5005924;28;20188;-70
2022/07/19 04:27:15;;;;;;;3.77;3.37;;;20.60;98.00;;;;;;5006759;28;20492;-70
2022/07/19 04:29:41;;;;;;;3.87;3.40;;;20.80;97.80;;;;;;5005545;28;20955;-70
2022/07/19 04:32:06;;;;;;;4.80;3.77;;;20.80;97.30;;;;;;5006054;28;20184;-70
2022/07/19 04:34:32;;;;;;;5.53;3.80;;;20.80;97.50;;;;;;5005588;28;20564;-69
2022/07/19 04:36:57;;;;;;;4.43;3.73;;;20.80;97.60;;;;;;5005459;28;20191;-72
2022/07/19 04:39:23;;;;;;;4.17;3.67;;;20.80;97.60;;;;;;5005530;28;20219;-70
2022/07/19 04:41:48;;;;;;;3.23;2.93;;;20.90;97.90;;;;;;5005775;28;20667;-70
2022/07/19 04:44:14;;;;;;;9.03;3.80;;;20.80;97.60;;;;;;5005181;28;20262;-70
2022/07/19 04:46:40;;;;;;;4.10;3.70;;;20.80;98.10;;;;;;5005466;28;20187;-70
2022/07/19 04:49:05;;;;;;;7.30;3.90;;;20.80;98.20;;;;;;5005497;28;20254;-70
2022/07/19 04:51:31;;;;;;;6.20;3.60;;;20.80;98.40;;;;;;5005233;28;20184;-71
2022/07/19 04:53:56;;;;;;;4.23;3.10;;;20.70;98.60;;;;;;5004996;28;20200;-71
2022/07/19 04:56:22;;;;;;;5.67;3.73;;;20.80;98.60;;;;;;5005168;28;20262;-72
2022/07/19 04:58:47;;;;;;;4.73;3.40;;;20.90;98.40;;;;;;5004789;28;20735;-70
2022/07/19 05:01:13;;;;;;;7.80;3.60;;;21.00;98.20;;;;;;5005258;28;20183;-71
2022/07/19 05:03:38;;;;;;;5.50;3.97;;;21.10;98.00;;;;;;5005277;28;20187;-70
2022/07/19 05:06:04;;;;;;;6.53;3.87;;;21.20;98.00;;;;;;5005219;28;21187;-70
2022/07/19 05:08:30;;;;;;;4.00;3.60;;;21.20;97.80;;;;;;5005429;28;20200;-69
2022/07/19 05:10:55;;;;;;;4.17;3.77;;;21.10;97.60;;;;;;5004528;28;20538;-71
2022/07/19 05:13:21;;;;;;;3.90;3.60;;;21.10;97.70;;;;;;5005144;28;20315;-70
2022/07/19 05:15:46;;;;;;;4.43;3.50;;;21.20;97.80;;;;;;5005024;28;20180;-70
2022/07/19 05:18:12;;;;;;;3.77;3.47;;;21.20;97.60;;;;;;5005846;28;20833;-70
2022/07/19 05:20:37;;;;;;;4.47;3.70;;;21.40;97.50;;;;;;5004688;28;20278;-70
2022/07/19 05:23:03;;;;;;;3.80;3.40;;;21.40;97.40;;;;;;5003699;28;20176;-71
2022/07/19 05:25:29;;;;;;;4.53;4.10;;;21.50;97.30;;;;;;5007419;28;20263;-70
2022/07/19 05:27:56;;;;;;;4.53;3.40;;;21.60;97.20;;;;;;5008421;28;20183;-71
2022/07/19 05:30:22;;;;;;;3.67;3.37;;;21.70;97.20;;;;;;5007308;28;20219;-69
2022/07/19 05:32:48;;;;;;;6.47;4.10;;;21.80;97.10;;;;;;5006836;28;20559;-70
2022/07/19 05:35:13;;;;;;;4.83;3.97;;;21.90;96.90;;;;;;5007867;28;20561;-72
2022/07/19 05:37:39;;;;;;;3.90;3.50;;;22.10;96.10;;;;;;5007854;28;20184;-70
2022/07/19 05:40:05;;;;;;;4.20;3.80;;;22.30;96.50;;;;;;5007281;28;20202;-70
2022/07/19 05:42:31;;;;;;;4.77;3.80;;;22.40;96.40;;;;;;5006863;28;20254;-69
2022/07/19 05:44:56;;;;;;;4.37;3.90;;;22.60;95.90;;;;;;5015106;28;20414;-71
2022/07/19 05:47:22;;;;;;;4.23;3.83;;;22.70;95.50;;;;;;5009219;28;20282;-70
2022/07/19 05:49:47;;;;;;;4.10;3.70;;;22.80;95.30;;;;;;5005077;28;20200;-69
2022/07/19 05:52:14;;;;;;;5.90;5.30;;;22.90;95.20;;;;;;5004412;28;20184;-67
2022/07/19 05:54:39;;;;;;;5.23;4.20;;;23.00;95.20;;;;;;5004579;28;20195;-69
2022/07/19 05:57:05;;;;;;;5.67;4.87;;;23.10;94.90;;;;;;5004705;28;20445;-68
2022/07/19 05:59:30;;;;;;;4.60;4.20;;;23.20;94.80;;;;;;5004299;28;20237;-69
2022/07/19 06:01:56;;;;;;;4.33;3.97;;;23.30;94.90;;;;;;5005350;28;20184;-70
2022/07/19 06:04:22;;;;;;;8.90;4.63;;;23.50;94.30;;;;;;5005288;28;20302;-72
2022/07/19 06:06:47;;;;;;;5.13;4.63;;;23.50;94.00;;;;;;5004870;28;20732;-69
2022/07/19 06:09:15;;;;;;;4.83;4.10;;;23.60;93.70;;;;;;5003950;28;20205;-70
2022/07/19 06:11:41;;;;;;;5.10;4.23;;;23.70;94.10;;;;;;5005901;28;20184;-69
2022/07/19 06:14:08;;;;;;;4.90;4.20;;;23.90;94.30;;;;;;5004250;28;20469;-69
2022/07/19 06:16:40;;;;;;;5.20;4.70;;;24.00;94.00;;;;;;5004478;28;20190;-70
2022/07/19 06:19:06;;;;;;;9.83;4.70;;;24.10;93.90;;;;;;5004200;28;20523;-71
2022/07/19 06:21:32;;;;;;;5.40;3.43;;;24.20;93.70;;;;;;5004493;28;20446;-71
2022/07/19 06:23:58;;;;;;;5.33;4.83;;;24.30;93.60;;;;;;5004367;28;20450;-69
2022/07/19 06:26:25;;;;;;;5.43;4.17;;;24.40;93.20;;;;;;5004113;28;20923;-73
2022/07/19 06:28:50;;;;;;;5.80;4.00;;;24.50;92.90;;;;;;5004389;28;20284;-69
2022/07/19 06:31:19;;;;;;;4.83;4.23;;;24.70;92.80;;;;;;5004319;28;20486;-70
2022/07/19 06:33:47;;;;;;;7.10;4.37;;;24.80;92.30;;;;;;5006368;28;20239;-69
2022/07/19 06:36:13;;;;;;;7.60;4.30;;;24.90;92.30;;;;;;5007686;28;20736;-74
2022/07/19 06:38:39;;;;;;;4.40;3.90;;;25.00;92.20;;;;;;5008177;28;21429;-70
2022/07/19 06:41:05;;;;;;;6.73;3.87;;;25.20;92.10;;;;;;5007712;28;20242;-71
2022/07/19 06:43:31;;;;;;;3.90;3.60;;;25.30;91.50;;;;;;5007912;28;20497;-70
2022/07/19 06:45:57;;;;;;;5.73;3.90;;;25.50;91.30;;;;;;5007237;28;20509;-70
2022/07/19 06:48:22;;;;;;;5.50;3.70;;;25.60;91.20;;;;;;5007937;28;20210;-71
2022/07/19 06:50:48;;;;;;;4.70;3.97;;;25.70;90.80;;;;;;5007334;28;20192;-70
2022/07/19 06:53:13;;;;;;;5.10;3.83;;;25.90;88.40;;;;;;5007506;28;20211;-70
2022/07/19 06:55:39;;;;;;;5.97;5.30;;;26.00;87.70;;;;;;5007425;28;20262;-72
2022/07/19 07:00:45;;;;;;;5.83;4.13;;;26.00;86.80;;;;;;5025928;28;20206;-70
2022/07/19 07:03:10;;;;;;;7.43;4.33;;;26.10;86.80;;;;;;5027331;28;20503;-69
2022/07/19 07:05:36;;;;;;;12.30;4.10;;;25.90;84.20;;;;;;5027283;28;20921;-69
2022/07/19 07:08:02;;;;;;;7.10;5.20;;;26.00;84.50;;;;;;5027455;28;20183;-70
2022/07/19 07:10:28;;;;;;;10.33;6.17;;;25.80;86.50;;;;;;5027067;28;20199;-69
2022/07/19 07:12:53;;;;;;;11.37;6.73;;;25.70;87.70;;;;;;5027174;28;20421;-70
2022/07/19 07:15:19;;;;;;;7.77;6.97;;;25.60;89.30;;;;;;5025872;28;20182;-70
2022/07/19 07:17:45;;;;;;;9.10;6.53;;;25.50;89.90;;;;;;5027151;28;20175;-70
2022/07/19 07:20:11;;;;;;;10.57;7.20;;;25.50;90.00;;;;;;5008867;28;20244;-70
2022/07/19 07:22:37;;;;;;;9.13;6.00;;;25.70;89.10;;;;;;5027118;28;20258;-70
2022/07/19 07:25:04;;;;;;;8.90;6.87;;;25.90;87.20;;;;;;5026908;28;20895;-71
2022/07/19 07:27:29;;;;;;;8.10;6.43;;;25.90;87.80;;;;;;5026952;28;20683;-71
2022/07/19 07:29:55;;;;;;;7.93;5.77;;;26.00;87.90;;;;;;5026357;28;20434;-71
2022/07/19 07:32:21;;;;;;;8.93;5.67;;;26.20;86.50;;;;;;5026736;28;20670;-70
2022/07/19 07:34:47;;;;;;;8.53;6.70;;;26.10;86.50;;;;;;5027013;28;20195;-69
2022/07/19 07:37:13;;;;;;;12.90;6.67;;;26.30;87.80;;;;;;5026606;28;20276;-70
2022/07/19 07:39:38;;;;;;;6.33;5.50;;;26.40;86.30;;;;;;5027065;28;20221;-70
2022/07/19 07:42:05;;;;;;;7.57;4.97;;;26.60;84.00;;;;;;5026900;28;20638;-71
2022/07/19 07:44:31;;;;;;;3.50;2.40;;;26.90;81.30;;;;;;5026564;28;20184;-70
2022/07/19 07:46:56;;;;;;;3.33;2.63;;;27.10;72.90;;;;;;5026576;28;20811;-71
2022/07/19 07:49:22;;;;;;;3.73;2.70;;;27.40;70.20;;;;;;5026458;28;20442;-70
2022/07/19 07:51:48;;;;;;;3.00;2.67;;;27.50;68.60;;;;;;5026685;28;20179;-70
2022/07/19 07:54:14;;;;;;;2.67;2.27;;;27.70;68.00;;;;;;5026683;28;20199;-70
2022/07/19 07:56:40;;;;;;;5.10;3.40;;;27.80;67.60;;;;;;5026541;28;20990;-70
2022/07/19 07:59:05;;;;;;;3.30;2.50;;;28.10;68.50;;;;;;5025476;28;20449;-69
2022/07/19 08:01:31;;;;;;;3.13;2.30;;;28.20;65.50;;;;;;5026422;28;20422;-71
2022/07/19 08:03:57;;;;;;;3.83;2.20;;;28.40;64.40;;;;;;5025250;28;20193;-70
2022/07/19 08:06:23;;;;;;;3.50;2.53;;;28.40;65.10;;;;;;5019231;28;20272;-70
2022/07/19 08:08:49;;;;;;;2.97;2.33;;;28.50;64.70;;;;;;5025971;28;20564;-69
2022/07/19 08:11:14;;;;;;;2.80;2.60;;;28.70;63.90;;;;;;5013362;28;20183;-70
2022/07/19 08:13:40;;;;;;;3.03;2.73;;;28.80;63.90;;;;;;5026367;28;20336;-70
2022/07/19 08:16:06;;;;;;;3.30;2.23;;;28.80;61.20;;;;;;5025937;28;20250;-70
2022/07/19 08:18:32;;;;;;;2.87;2.43;;;29.00;60.80;;;;;;5025222;28;20191;-70
2022/07/19 08:20:58;;;;;;;2.60;1.93;;;29.00;59.30;;;;;;5025835;28;20262;-70
2022/07/19 08:23:24;;;;;;;4.93;2.50;;;28.90;59.40;;;;;;5026276;28;20947;-70
2022/07/19 08:25:50;;;;;;;2.97;2.30;;;28.90;59.50;;;;;;5025850;28;20454;-70
2022/07/19 08:28:15;;;;;;;3.40;2.40;;;28.90;59.50;;;;;;5025695;28;20640;-69
2022/07/19 08:30:41;;;;;;;4.23;2.33;;;29.00;58.80;;;;;;5026006;28;20210;-70
2022/07/19 08:33:08;;;;;;;4.17;2.73;;;29.10;58.50;;;;;;5025867;28;20199;-70
2022/07/19 08:35:34;;;;;;;5.20;2.57;;;29.20;58.10;;;;;;5025597;28;20171;-70
2022/07/19 08:38:00;;;;;;;2.50;2.30;;;29.20;58.40;;;;;;5025551;28;20422;-70
2022/07/19 08:40:26;;;;;;;2.50;2.30;;;29.20;58.80;;;;;;5025945;28;20433;-70
2022/07/19 08:42:53;;;;;;;4.63;2.47;;;29.20;58.20;;;;;;5025251;28;20792;-69
2022/07/19 08:45:22;;;;;;;4.40;2.37;;;29.30;58.10;;;;;;5025679;28;20198;-71
2022/07/19 08:47:48;;;;;;;5.37;3.27;;;29.40;58.90;;;;;;5025278;28;20992;-70
2022/07/19 08:50:14;;;;;;;4.17;2.87;;;29.50;58.30;;;;;;5025744;28;20434;-70
2022/07/19 08:52:40;;;;;;;8.93;3.20;;;29.60;57.70;;;;;;5025082;28;20409;-70
2022/07/19 08:55:07;;;;;;;2.73;2.40;;;29.70;57.70;;;;;;5025327;28;20167;-70
2022/07/19 09:00:16;;;;;;;3.30;2.27;;;29.90;57.70;;;;;;5025853;28;20495;-70
2022/07/19 09:03:00;;;;;;;3.07;2.30;;;30.10;57.60;;;;;;5025303;28;20911;-70
2022/07/19 09:05:26;;;;;;;2.77;2.00;;;30.20;56.50;;;;;;5025298;28;20219;-69
2022/07/19 09:08:14;;;;;;;2.20;2.00;;;30.10;55.90;;;;;;5024750;28;20500;-69
2022/07/19 09:11:14;;;;;;;2.27;2.00;;;29.90;55.70;;;;;;5024770;28;20788;-70
2022/07/19 09:13:31;;;;;;;4.20;3.80;;;30.10;55.10;;;;;;5025039;28;20545;-70
2022/07/19 09:15:57;;;;;;;2.57;2.37;;;30.10;55.50;;;;;;5025408;28;20493;-72
2022/07/19 09:18:27;;;;;;;4.83;2.60;;;30.00;55.00;;;;;;5025576;28;20171;-71
2022/07/19 09:20:56;;;;;;;3.00;2.50;;;30.10;55.10;;;;;;5024899;28;20584;-71
2022/07/19 09:23:22;;;;;;;4.00;2.47;;;30.40;55.90;;;;;;5024622;28;20421;-70
2022/07/19 09:25:53;;;;;;;2.90;2.40;;;30.50;54.20;;;;;;5024270;28;20418;-70
2022/07/19 09:28:20;;;;;;;4.10;2.53;;;30.60;54.20;;;;;;5022782;28;20426;-70
2022/07/19 09:30:48;;;;;;;4.27;2.80;;;30.70;52.20;;;;;;5024642;28;20418;-69
2022/07/19 09:33:22;;;;;;;2.60;2.40;;;30.80;52.40;;;;;;5024539;28;20922;-70
2022/07/19 09:35:59;;;;;;;4.00;2.10;;;30.90;51.80;;;;;;5024108;28;20418;-71
2022/07/19 09:38:30;;;;;;;5.27;2.60;;;30.90;51.70;;;;;;5024472;28;20417;-71
2022/07/19 09:41:14;;;;;;;4.50;3.10;;;31.00;50.40;;;;;;5023892;28;20445;-69
2022/07/19 09:43:53;;;;;;;3.83;2.60;;;31.10;50.30;;;;;;5024096;28;20945;-70
2022/07/19 09:46:28;;;;;;;4.47;2.73;;;31.20;50.20;;;;;;5023952;28;20468;-70
2022/07/19 09:48:54;;;;;;;4.40;3.17;;;31.40;49.70;;;;;;5024158;28;21662;-69
2022/07/19 09:51:20;;;;;;;3.40;2.80;;;31.40;50.00;;;;;;5024186;28;20444;-70
2022/07/19 09:53:47;;;;;;;3.13;2.93;;;31.60;48.40;;;;;;5023943;28;20203;-70
2022/07/19 09:56:15;;;;;;;3.77;3.10;;;31.70;47.00;;;;;;5024229;28;20416;-69
2022/07/19 09:58:41;;;;;;;2.40;2.20;;;31.80;47.70;;;;;;5023897;28;20481;-70
2022/07/19 10:01:07;;;;;;;3.50;3.00;;;31.70;46.80;;;;;;5024155;28;20552;-70
2022/07/19 10:03:33;;;;;;;4.87;2.77;;;31.60;46.70;;;;;;5024403;28;20924;-69
2022/07/19 10:05:59;;;;;;;7.50;3.60;;;31.70;47.00;;;;;;5023535;28;20186;-71
2022/07/19 10:08:25;;;;;;;3.30;2.63;;;31.80;47.10;;;;;;5023237;28;21602;-69
2022/07/19 10:10:50;;;;;;;4.30;3.07;;;31.90;45.90;;;;;;5023845;28;20258;-71
2022/07/19 10:13:16;;;;;;;4.80;2.67;;;31.90;46.70;;;;;;5023538;28;20234;-69
2022/07/19 10:15:48;;;;;;;3.57;3.07;;;32.00;46.30;;;;;;5023836;28;20222;-70
2022/07/19 10:18:19;;;;;;;3.77;3.00;;;32.10;46.10;;;;;;5023964;28;20182;-70
2022/07/19 10:20:47;;;;;;;5.07;2.60;;;31.80;46.10;;;;;;5023828;28;20398;-69
2022/07/19 10:23:12;;;;;;;3.50;2.73;;;31.80;46.10;;;;;;5024044;28;20820;-71
2022/07/19 10:25:44;;;;;;;5.20;2.97;;;32.00;45.80;;;;;;5023693;28;20414;-70
2022/07/19 10:28:29;;;;;;;4.10;2.97;;;32.30;46.80;;;;;;5023529;28;20171;-70
2022/07/19 10:30:55;;;;;;;4.67;3.20;;;32.40;46.30;;;;;;5023341;28;20436;-70
2022/07/19 10:33:32;;;;;;;4.10;2.30;;;32.40;45.70;;;;;;5023913;28;20459;-71
2022/07/19 10:36:18;;;;;;;5.97;2.97;;;32.50;45.40;;;;;;5023447;28;20416;-69
2022/07/19 10:39:21;;;;;;;5.67;3.10;;;32.60;46.00;;;;;;5023663;28;20456;-70
2022/07/19 10:42:05;;;;;;;2.47;2.27;;;32.80;45.20;;;;;;5023578;28;20418;-70
2022/07/19 10:44:31;;;;;;;5.10;3.10;;;33.00;45.10;;;;;;5024109;28;20844;-70
2022/07/19 10:46:57;;;;;;;3.63;2.63;;;32.90;45.00;;;;;;5023890;28;20761;-69
2022/07/19 10:49:44;;;;;;;4.97;2.83;;;33.00;45.30;;;;;;5023511;28;20441;-70
2022/07/19 10:52:32;;;;;;;4.40;2.90;;;33.10;45.10;;;;;;5024086;28;20179;-70
2022/07/19 10:55:27;;;;;;;2.73;2.53;;;33.20;44.30;;;;;;5023631;28;20468;-70
2022/07/19 10:57:59;;;;;;;5.53;2.93;;;33.10;44.90;;;;;;5022746;28;20410;-70
2022/07/19 11:00:27;;;;;;;4.17;3.07;;;32.90;44.20;;;;;;5023680;28;20448;-71
2022/07/19 11:03:13;;;;;;;5.13;3.10;;;32.90;44.90;;;;;;5023372;28;20410;-70
2022/07/19 11:05:50;;;;;;;4.87;3.37;;;33.10;44.40;;;;;;5022959;28;20417;-70
2022/07/19 11:08:17;;;;;;;3.03;2.70;;;33.30;43.00;;;;;;5023557;28;20941;-70
2022/07/19 11:10:42;;;;;;;6.50;3.20;;;33.20;42.90;;;;;;5023541;28;20493;-71
2022/07/19 11:13:08;;;;;;;5.53;2.83;;;33.30;42.90;;;;;;5022781;28;20464;-71
2022/07/19 11:15:34;;;;;;;3.33;3.00;;;33.30;43.20;;;;;;5023786;28;20272;-71
2022/07/19 11:18:05;;;;;;;3.70;2.67;;;33.30;43.60;;;;;;5023182;28;20172;-70
2022/07/19 11:20:33;;;;;;;3.57;2.80;;;33.20;43.50;;;;;;5026973;28;20280;-71
2022/07/19 11:23:00;;;;;;;3.43;3.13;;;33.40;43.40;;;;;;5027109;28;20492;-70
2022/07/19 11:25:36;;;;;;;3.83;3.27;;;33.50;42.10;;;;;;5026731;28;20429;-70
2022/07/19 11:28:03;;;;;;;3.47;2.37;;;33.80;42.00;;;;;;5026872;28;20401;-70
2022/07/19 11:30:32;;;;;;;3.30;2.60;;;33.80;41.50;;;;;;5027116;28;20445;-70
2022/07/19 11:33:00;;;;;;;3.40;3.10;;;34.40;41.30;;;;;;5027140;28;20563;-70
2022/07/19 11:35:27;;;;;;;4.20;3.00;;;35.30;40.10;;;;;;5026959;28;20414;-71
2022/07/19 11:37:54;;;;;;;2.60;2.40;;;36.40;38.60;;;;;;5026546;28;20406;-71
2022/07/19 11:40:21;;;;;;;4.17;2.50;;;37.60;37.90;;;;;;5026430;28;20564;-70
2022/07/19 11:42:48;;;;;;;2.97;2.43;;;38.30;37.40;;;;;;5026415;28;20452;-70
2022/07/19 11:45:20;;;;;;;12.23;3.00;;;38.40;34.50;;;;;;5026038;28;20401;-70
2022/07/19 11:47:49;;;;;;;5.87;2.90;;;38.20;34.30;;;;;;5026307;28;20417;-70
2022/07/19 11:50:17;;;;;;;3.73;2.57;;;38.30;34.60;;;;;;5026371;28;20860;-70
2022/07/19 11:52:53;;;;;;;7.53;5.87;;;39.20;34.30;;;;;;5026052;28;20407;-71
2022/07/19 11:55:22;;;;;;;3.73;2.60;;;40.20;33.60;;;;;;5026407;28;20929;-72
2022/07/19 11:57:48;;;;;;;3.50;2.90;;;41.10;32.60;;;;;;5026435;28;20413;-72
2022/07/19 12:00:15;;;;;;;5.93;2.60;;;39.30;32.50;;;;;;5025921;28;20460;-72
2022/07/19 12:02:56;;;;;;;4.40;3.13;;;40.00;32.50;;;;;;5026036;28;20417;-72
2022/07/19 12:05:23;;;;;;;4.93;2.87;;;39.90;31.90;;;;;;5025867;28;20420;-70
2022/07/19 12:07:51;;;;;;;2.87;2.67;;;39.40;32.40;;;;;;5026053;28;20442;-71
2022/07/19 12:10:35;;;;;;;7.40;2.77;;;39.80;32.00;;;;;;5026025;28;20430;-70
2022/07/19 12:13:01;;;;;;;4.80;3.07;;;39.40;32.70;;;;;;5025608;28;20414;-71
2022/07/19 12:15:43;;;;;;;5.30;2.67;;;40.00;32.60;;;;;;5025956;28;20416;-71
2022/07/19 12:18:09;;;;;;;5.53;2.90;;;40.80;30.90;;;;;;5025903;28;20414;-70
2022/07/19 12:20:34;;;;;;;5.00;2.33;;;41.00;30.60;;;;;;5025735;28;20410;-71
2022/07/19 12:23:15;;;;;;;3.50;3.00;;;42.20;30.60;;;;;;5025333;28;20240;-70
2022/07/19 12:25:40;;;;;;;4.03;2.63;;;42.20;30.00;;;;;;5025603;28;20179;-70
2022/07/19 12:28:06;;;;;;;3.00;2.53;;;42.00;29.80;;;;;;5025606;28;20463;-71
2022/07/19 12:30:32;;;;;;;3.00;2.63;;;41.70;29.60;;;;;;5024552;28;20198;-70
2022/07/19 12:33:12;;;;;;;6.93;3.37;;;41.40;29.80;;;;;;5026111;28;20298;-71
2022/07/19 12:35:47;;;;;;;3.23;2.93;;;42.00;29.80;;;;;;5025751;28;20439;-71
2022/07/19 12:38:13;;;;;;;4.87;3.00;;;42.30;30.00;;;;;;5025518;28;20406;-70
2022/07/19 12:40:40;;;;;;;7.30;3.10;;;42.40;30.80;;;;;;5026012;28;20418;-70
2022/07/19 12:43:06;;;;;;;5.07;2.67;;;42.50;29.90;;;;;;5025945;28;20483;-71
2022/07/19 12:45:41;;;;;;;3.73;2.70;;;43.30;29.30;;;;;;5025290;28;20496;-71
2022/07/19 12:48:08;;;;;;;4.10;2.73;;;43.40;29.00;;;;;;5025344;28;20158;-72
2022/07/19 12:50:48;;;;;;;4.03;3.27;;;41.90;29.40;;;;;;5024940;28;20608;-72
2022/07/19 12:53:16;;;;;;;4.57;2.50;;;41.90;29.60;;;;;;5025674;28;20545;-69